AD4050 / PR-AUQ 7700 Squawk Report (7th of July, 2020)

Aircraft E195 Reg No. PR-AUQ Age 4 years old
Model Emb-195 Jet engines 2 First flight 13-11-15
Registered 29-12-15 Rollout 10-15 Delivered 29-12-15
Construction No. 19000699 Line No. N/A Series 100IGW
ADSHEX E4926A Airline name Azul Owner N/A
Airfield based Sao Paulo-Viracopos~Sao Paulo~PP First tracked N/A
Time Lat Lon Altitude Heading Speed Vertical Rate
2020-07-07 13:38:26 GMT -23.440155 -46.492043 2,425 73 138 -704
2020-07-07 13:38:22 GMT -23.440727 -46.494038 2,450 73 139 -704
2020-07-07 13:38:13 GMT -23.442682 -46.501110 2,600 73 141 -640
2020-07-07 13:38:08 GMT -23.443542 -46.504276 2,650 72 140 -768
2020-07-07 13:38:02 GMT -23.444498 -46.507671 2,700 73 140 -768
2020-07-07 13:37:58 GMT -23.445477 -46.511486 2,775 74 142 -704
2020-07-07 13:37:52 GMT -23.446381 -46.514915 2,850 73 141 -896
2020-07-07 13:37:47 GMT -23.447296 -46.518211 2,900 73 142 -768
2020-07-07 13:37:42 GMT -23.448362 -46.522217 3,050 73 143 -576
2020-07-07 13:37:36 GMT -23.449402 -46.525951 3,050 74 143 -832
2020-07-07 13:37:29 GMT -23.450775 -46.531197 3,150 74 143 -704
2020-07-07 13:37:26 GMT -23.451202 -46.533001 3,175 74 142 -832
2020-07-07 13:37:19 GMT -23.452459 -46.537781 3,275 73 143 -704
2020-07-07 13:37:05 GMT -23.455158 -46.547802 3,450 74 145 -768
2020-07-07 13:36:59 GMT -23.456324 -46.552124 3,525 72 145 -704
2020-07-07 13:36:53 GMT -23.457207 -46.555279 3,600 73 146 -896
2020-07-07 13:36:46 GMT -23.458651 -46.560619 3,750 74 148 -768
2020-07-07 13:36:43 GMT -23.459255 -46.563110 3,700 74 148 -768
2020-07-07 13:36:37 GMT -23.460512 -46.567688 3,800 72 147 -704
2020-07-07 13:36:33 GMT -23.461304 -46.570637 3,850 73 147 -832
2020-07-07 13:36:28 GMT -23.462448 -46.574638 3,925 72 146 -704
2020-07-07 13:36:21 GMT -23.463491 -46.578217 3,975 72 148 -768
2020-07-07 13:36:15 GMT -23.464935 -46.583050 4,075 70 148 -832
2020-07-07 13:36:11 GMT -23.465773 -46.585743 4,125 72 148 -832
2020-07-07 13:36:05 GMT -23.467163 -46.590919 4,225 75 148 -640
2020-07-07 13:36:01 GMT -23.467634 -46.593067 4,250 77 146 -640
2020-07-07 13:35:56 GMT -23.468567 -46.597393 4,325 75 146 -832
2020-07-07 13:35:53 GMT -23.468765 -46.598110 4,325 75 146 -832
2020-07-07 13:35:49 GMT -23.469543 -46.601257 4,400 72 148 -1024
2020-07-07 13:35:43 GMT -23.471033 -46.606445 4,500 72 156 -512
2020-07-07 13:35:39 GMT -23.471731 -46.608837 4,525 72 160 -704
2020-07-07 13:35:33 GMT -23.473480 -46.614693 4,625 72 170 -1024
2020-07-07 13:35:29 GMT -23.474293 -46.617432 4,700 72 173 -704
2020-07-07 13:35:21 GMT -23.475906 -46.623329 4,775 73 175 -1344
2020-07-07 13:35:17 GMT -23.476713 -46.626434 4,900 76 178 -896
2020-07-07 13:35:12 GMT -23.477829 -46.632118 4,975 84 184 -960
2020-07-07 13:35:07 GMT -23.477829 -46.635914 5,025 95 191 -1088
2020-07-07 13:35:01 GMT -23.474106 -46.645966 5,150 128 203 -128
2020-07-07 13:34:57 GMT -23.474106 -46.645966 5,150 125 201 -256
2020-07-07 13:34:50 GMT -23.469961 -46.650799 5,150 140 208 -64
2020-07-07 13:34:46 GMT -23.466843 -46.653339 5,150 146 208 -64
2020-07-07 13:34:39 GMT -23.457998 -46.659290 5,175 148 209 -64
2020-07-07 13:34:36 GMT -23.457998 -46.659290 5,175 148 209 -64
2020-07-07 13:34:29 GMT -23.452744 -46.662682 5,175 149 210 0
2020-07-07 13:34:25 GMT -23.449200 -46.664936 5,175 149 211 64
2020-07-07 13:34:18 GMT -23.440029 -46.670837 5,200 148 215 -384
2020-07-07 13:34:07 GMT -23.433609 -46.675014 5,275 149 221 -320
2020-07-07 13:34:04 GMT -23.430952 -46.676739 5,300 148 224 -64
2020-07-07 13:33:56 GMT -23.424109 -46.681263 5,325 148 233 -64
2020-07-07 13:33:53 GMT -23.421129 -46.683197 5,325 148 234 0
2020-07-07 13:33:45 GMT -23.413633 -46.688183 5,300 148 243 192
2020-07-07 13:33:42 GMT -23.410841 -46.690014 5,300 148 246 0
2020-07-07 13:33:35 GMT -23.403717 -46.694893 5,300 145 248 -192
2020-07-07 13:33:32 GMT -23.400600 -46.697235 5,300 144 246 -128
2020-07-07 13:33:24 GMT -23.393570 -46.703644 5,300 130 245 -64
2020-07-07 13:33:21 GMT -23.391382 -46.706440 5,325 127 245 -64
2020-07-07 13:33:13 GMT -23.387146 -46.714783 5,325 109 240 -64
2020-07-07 13:33:10 GMT -23.386185 -46.717911 5,325 104 238 -64
2020-07-07 13:33:03 GMT -23.385843 -46.729889 5,325 82 231 192
2020-07-07 13:33:00 GMT -23.385843 -46.729889 5,325 76 228 192
2020-07-07 13:32:52 GMT -23.388681 -46.737366 5,325 47 219 -128
2020-07-07 13:32:49 GMT -23.390808 -46.740433 5,300 48 220 -128
2020-07-07 13:32:40 GMT -23.397341 -46.747334 5,325 41 218 64
2020-07-07 13:32:37 GMT -23.399368 -46.749271 5,325 39 218 192
2020-07-07 13:32:30 GMT -23.406418 -46.754269 5,300 27 214 64
2020-07-07 13:32:27 GMT -23.409073 -46.755726 5,300 26 214 64
2020-07-07 13:32:21 GMT -23.418243 -46.760712 5,300 26 214 0
2020-07-07 13:32:16 GMT -23.418243 -46.760712 5,300 25 214 -64
2020-07-07 13:32:09 GMT -23.423950 -46.763603 5,325 24 214 -128
2020-07-07 13:32:04 GMT -23.427933 -46.765602 5,325 23 215 0
2020-07-07 13:31:59 GMT -23.438187 -46.768200 5,350 3 211 -384
2020-07-07 13:31:54 GMT -23.438187 -46.768200 5,350 3 211 -384
2020-07-07 13:31:49 GMT -23.444962 -46.767700 5,400 351 211 -320
2020-07-07 13:31:44 GMT -23.448828 -46.766613 5,425 341 208 -320
2020-07-07 13:31:37 GMT -23.454786 -46.763458 5,475 329 210 -448
2020-07-07 13:31:33 GMT -23.457870 -46.761009 5,500 321 210 -448
2020-07-07 13:31:28 GMT -23.461533 -46.757214 5,550 312 211 -384
2020-07-07 13:31:22 GMT -23.464888 -46.752117 5,575 299 210 -448
2020-07-07 13:31:14 GMT -23.467621 -46.743980 5,625 270 222 -384
2020-07-07 13:31:10 GMT -23.468079 -46.741383 5,650 278 220 -384
2020-07-07 13:31:04 GMT -23.468033 -46.731995 5,675 267 222 -384
2020-07-07 13:31:00 GMT -23.467495 -46.729279 5,700 256 225 -384
2020-07-07 13:30:55 GMT -23.465195 -46.722904 5,750 243 227 -448
2020-07-07 13:30:50 GMT -23.462494 -46.718262 5,775 234 228 -320
2020-07-07 13:30:43 GMT -23.457550 -46.712719 5,825 218 228 -512
2020-07-07 13:30:39 GMT -23.454042 -46.710155 5,850 209 226 -576
2020-07-07 13:30:33 GMT -23.448303 -46.707077 5,900 206 229 -448
2020-07-07 13:30:28 GMT -23.443848 -46.704815 5,925 206 229 -448
2020-07-07 13:30:24 GMT -23.439011 -46.702332 5,975 206 232 -384
2020-07-07 13:30:20 GMT -23.435654 -46.700642 6,000 206 233 -384
2020-07-07 13:30:17 GMT -23.433140 -46.699268 6,000 206 233 -384
2020-07-07 13:30:12 GMT -23.427879 -46.696522 6,050 206 234 -448
2020-07-07 13:30:09 GMT -23.425459 -46.695251 6,075 206 234 -512
2020-07-07 13:30:05 GMT -23.422153 -46.693523 6,075 206 234 -512
2020-07-07 13:30:01 GMT -23.417084 -46.690845 6,125 207 233 -512
2020-07-07 13:29:56 GMT -23.412331 -46.688282 6,250 206 232 -448
2020-07-07 13:29:51 GMT -23.408838 -46.686401 6,200 207 232 -384
2020-07-07 13:29:48 GMT -23.404463 -46.684063 6,225 207 232 -448
2020-07-07 13:29:45 GMT -23.401577 -46.682537 6,250 207 232 -448
2020-07-07 13:29:40 GMT -23.396782 -46.680042 6,275 206 232 -448
2020-07-07 13:29:37 GMT -23.394361 -46.678822 6,300 205 232 -448
2020-07-07 13:29:34 GMT -23.391449 -46.677315 6,300 205 232 -448
2020-07-07 13:29:31 GMT -23.387657 -46.675568 6,350 201 233 -448
2020-07-07 13:29:27 GMT -23.383934 -46.674244 6,375 192 235 -448
2020-07-07 13:29:23 GMT -23.380070 -46.673382 6,400 188 236 -448
2020-07-07 13:29:19 GMT -23.376253 -46.673077 6,425 182 237 -448
2020-07-07 13:29:16 GMT -23.371784 -46.673229 6,450 172 239 -448
2020-07-07 13:29:12 GMT -23.368013 -46.673939 6,475 166 238 -448
2020-07-07 13:29:07 GMT -23.361916 -46.676178 6,525 155 243 -512
2020-07-07 13:29:04 GMT -23.360550 -46.676964 6,525 150 244 -512
2020-07-07 13:29:00 GMT -23.356155 -46.679859 6,550 145 244 -512
2020-07-07 13:28:55 GMT -23.351021 -46.684826 6,600 135 246 -448
2020-07-07 13:28:49 GMT -23.346972 -46.690472 6,625 125 246 -448
2020-07-07 13:28:44 GMT -23.344503 -46.695759 6,700 109 244 -448
2020-07-07 13:28:39 GMT -23.342920 -46.701355 6,725 100 243 -448
2020-07-07 13:28:33 GMT -23.342083 -46.708527 6,775 88 241 -448
2020-07-07 13:28:28 GMT -23.342560 -46.715664 6,800 74 238 -448
2020-07-07 13:28:23 GMT -23.343899 -46.721241 6,825 69 236 -448
2020-07-07 13:28:15 GMT -23.347763 -46.729534 6,900 51 234 -448
2020-07-07 13:28:12 GMT -23.351440 -46.734493 6,925 45 234 -448
2020-07-07 13:28:06 GMT -23.354465 -46.737518 6,950 39 233 -448
2020-07-07 13:28:01 GMT -23.361216 -46.742199 7,000 27 234 -512
2020-07-07 13:27:58 GMT -23.361216 -46.742199 7,025 24 234 -640
2020-07-07 13:27:55 GMT -23.364197 -46.743469 7,050 18 234 -704
2020-07-07 13:27:51 GMT -23.368898 -46.744843 7,100 10 233 -896
2020-07-07 13:27:48 GMT -23.372131 -46.745377 7,150 4 232 -896
2020-07-07 13:27:42 GMT -23.379822 -46.745228 7,250 352 231 -960
2020-07-07 13:27:37 GMT -23.383934 -46.744282 7,325 344 230 -1024
2020-07-07 13:27:32 GMT -23.388519 -46.742432 7,425 334 232 -960
2020-07-07 13:27:29 GMT -23.391430 -46.740925 7,475 334 232 -896
2020-07-07 13:27:26 GMT -23.394733 -46.739147 7,500 333 232 -896
2020-07-07 13:27:19 GMT -23.405685 -46.732594 7,625 331 232 -960
2020-07-07 13:27:14 GMT -23.405685 -46.732594 7,675 330 234 -960
2020-07-07 13:27:08 GMT -23.411261 -46.728973 7,800 330 235 -1088
2020-07-07 13:27:00 GMT -23.418869 -46.724106 7,900 328 234 -768
2020-07-07 13:26:57 GMT -23.421501 -46.722157 7,950 322 234 -960
2020-07-07 13:26:50 GMT -23.426926 -46.715664 8,100 307 234 -1088
2020-07-07 13:26:47 GMT -23.428717 -46.713055 8,125 308 233 -960
2020-07-07 13:26:36 GMT -23.437143 -46.704456 8,300 331 237 -960
2020-07-07 13:26:32 GMT -23.441797 -46.702271 8,375 344 238 -960
2020-07-07 13:26:29 GMT -23.448898 -46.701084 8,500 1 244 -1024
2020-07-07 13:26:26 GMT -23.448898 -46.701084 8,500 1 244 -1024
2020-07-07 13:26:21 GMT -23.453529 -46.701458 8,550 10 246 -960
2020-07-07 13:26:17 GMT -23.458092 -46.702778 8,625 19 249 -1152
2020-07-07 13:26:14 GMT -23.470474 -46.710003 8,700 27 252 -1088
2020-07-07 13:26:09 GMT -23.470474 -46.710003 8,850 31 255 -1088
2020-07-07 13:26:04 GMT -23.472012 -46.711071 8,875 31 256 -1088
2020-07-07 13:25:57 GMT -23.478575 -46.715496 9,000 31 260 -1088
2020-07-07 13:25:51 GMT -23.485336 -46.720009 9,075 31 260 -1088
2020-07-07 13:25:45 GMT -23.490326 -46.723354 9,175 31 263 -1088
2020-07-07 13:25:42 GMT -23.494034 -46.725853 9,250 31 264 -1088
2020-07-07 13:25:36 GMT -23.500965 -46.730499 9,375 32 266 -1088
2020-07-07 13:25:30 GMT -23.505995 -46.734009 9,450 32 268 -1088
2020-07-07 13:25:25 GMT -23.511612 -46.737988 9,550 34 269 -1152
2020-07-07 13:25:20 GMT -23.518112 -46.743031 9,650 36 270 -1088
2020-07-07 13:25:11 GMT -23.525545 -46.750793 9,825 52 272 -1088
2020-07-07 13:25:04 GMT -23.530334 -46.759560 9,950 65 275 -1152
2020-07-07 13:24:59 GMT -23.531878 -46.763355 10,025 67 275 -1152
2020-07-07 13:24:50 GMT -23.536858 -46.777039 10,225 70 276 -1024
2020-07-07 13:24:39 GMT -23.539558 -46.791382 10,425 87 277 -1024
2020-07-07 13:24:32 GMT -23.538849 -46.803455 10,575 100 279 -1152
2020-07-07 13:24:28 GMT -23.538208 -46.806232 10,625 106 280 -1216
2020-07-07 13:24:24 GMT -23.536346 -46.811878 10,650 110 281 -1152
2020-07-07 13:24:18 GMT -23.532017 -46.820068 10,825 126 286 -1152
2020-07-07 13:24:07 GMT -23.521402 -46.830902 11,025 146 291 -1152
2020-07-07 13:24:00 GMT -23.512510 -46.835583 11,175 161 295 -1280
2020-07-07 13:23:56 GMT -23.508368 -46.836956 11,250 166 297 -1280
2020-07-07 13:23:46 GMT -23.493851 -46.839909 11,475 170 301 -1216
2020-07-07 13:23:42 GMT -23.481720 -46.842258 11,525 169 302 -1280
2020-07-07 13:23:38 GMT -23.481720 -46.842258 11,650 169 305 -1280
2020-07-07 13:23:35 GMT -23.479660 -46.842655 11,850 169 307 -1280
2020-07-07 13:23:32 GMT -23.475828 -46.843414 11,750 169 305 -1280
2020-07-07 13:23:25 GMT -23.464655 -46.845654 11,900 169 308 -1280
2020-07-07 13:23:22 GMT -23.461210 -46.846363 11,975 169 308 -1280
2020-07-07 13:23:16 GMT -23.454163 -46.847801 12,075 169 309 -1280
2020-07-07 13:23:13 GMT -23.448828 -46.848907 12,150 169 310 -1280
2020-07-07 13:23:10 GMT -23.444824 -46.849720 12,200 169 309 -1280
2020-07-07 13:23:06 GMT -23.439238 -46.850891 12,300 168 308 -1280
2020-07-07 13:23:03 GMT -23.433001 -46.852215 12,400 169 308 -1280
2020-07-07 13:23:00 GMT -23.429602 -46.852924 12,425 168 308 -1280
2020-07-07 13:22:54 GMT -23.421570 -46.854591 12,550 168 307 -1344
2020-07-07 13:22:50 GMT -23.417265 -46.855518 12,600 168 307 -1280
2020-07-07 13:22:45 GMT -23.409164 -46.857250 12,725 168 305 -1216
2020-07-07 13:22:41 GMT -23.402985 -46.858585 12,825 168 306 -1280
2020-07-07 13:22:38 GMT -23.398785 -46.859486 12,875 168 306 -1280
2020-07-07 13:22:34 GMT -23.386230 -46.862133 13,100 169 306 -1280
2020-07-07 13:22:30 GMT -23.386230 -46.862133 13,075 169 305 -1216
2020-07-07 13:22:27 GMT -23.383282 -46.862743 13,125 169 305 -1216
2020-07-07 13:22:23 GMT -23.377853 -46.863880 13,200 169 305 -1280
2020-07-07 13:22:18 GMT -23.372269 -46.865028 13,250 169 305 -1216
2020-07-07 13:22:15 GMT -23.364624 -46.866627 13,425 169 305 -1280
2020-07-07 13:22:12 GMT -23.358051 -46.867931 13,425 169 305 -1280
2020-07-07 13:22:09 GMT -23.358051 -46.867931 13,500 169 305 -1280
2020-07-07 13:22:05 GMT -23.353024 -46.868896 13,550 169 306 -1280
2020-07-07 13:22:02 GMT -23.349812 -46.869556 13,600 169 306 -1280
2020-07-07 13:21:58 GMT -23.344040 -46.870678 13,725 169 308 -1280
2020-07-07 13:21:52 GMT -23.334450 -46.872559 13,850 169 310 -1344
2020-07-07 13:21:47 GMT -23.327271 -46.873917 13,950 169 314 -1344
2020-07-07 13:21:41 GMT -23.319225 -46.875458 14,100 169 318 -1280
2020-07-07 13:21:37 GMT -23.312801 -46.876781 14,175 169 319 -1344
2020-07-07 13:21:30 GMT -23.303724 -46.878662 14,300 168 323 -1280
2020-07-07 13:21:26 GMT -23.297255 -46.880085 14,400 168 323 -1344
2020-07-07 13:21:20 GMT -23.287758 -46.882221 14,550 168 325 -1344
2020-07-07 13:21:17 GMT -23.282730 -46.883354 14,650 168 327 -1344
2020-07-07 13:21:14 GMT -23.281494 -46.883656 14,725 168 328 -1344
2020-07-07 13:21:11 GMT -23.274353 -46.885254 14,775 168 329 -1344
2020-07-07 13:21:08 GMT -23.271976 -46.885784 14,775 168 329 -1344
2020-07-07 13:21:05 GMT -23.265381 -46.887302 14,875 168 330 -1344
2020-07-07 13:20:58 GMT -23.256363 -46.889351 15,000 167 330 -1344
2020-07-07 13:20:54 GMT -23.240459 -46.893055 15,150 167 330 -1344
2020-07-07 13:20:48 GMT -23.240459 -46.893055 15,250 167 330 -1344
2020-07-07 13:20:43 GMT -23.232971 -46.894791 15,350 167 329 -1344
2020-07-07 13:20:39 GMT -23.226215 -46.896362 15,500 168 328 -1344
2020-07-07 13:20:36 GMT -23.221931 -46.897327 15,500 168 328 -1344
2020-07-07 13:20:31 GMT -23.216858 -46.898499 15,600 168 328 -1344
2020-07-07 13:20:26 GMT -23.208481 -46.900333 15,725 168 330 -1408
2020-07-07 13:20:22 GMT -23.200750 -46.902111 15,850 167 331 -1408
2020-07-07 13:20:14 GMT -23.191254 -46.904346 16,000 167 334 -1408
2020-07-07 13:20:11 GMT -23.184597 -46.905975 16,100 167 336 -1472
2020-07-07 13:20:05 GMT -23.174774 -46.908417 16,250 166 339 -1408
2020-07-07 13:20:00 GMT -23.168024 -46.910145 16,350 166 342 -1472
2020-07-07 13:19:54 GMT -23.158356 -46.912621 16,500 166 345 -1472
2020-07-07 13:19:49 GMT -23.151489 -46.914417 16,575 166 347 -1472
2020-07-07 13:19:42 GMT -23.140467 -46.917316 16,775 166 351 -1472
2020-07-07 13:19:38 GMT -23.134415 -46.918911 16,875 166 353 -1472
2020-07-07 13:19:32 GMT -23.123335 -46.921844 17,000 166 357 -1472
2020-07-07 13:19:28 GMT -23.116446 -46.923725 17,150 166 359 -1536
2020-07-07 13:19:23 GMT -23.108578 -46.925812 17,275 165 362 -1536
2020-07-07 13:19:20 GMT -23.104660 -46.926903 17,300 166 363 -1536
2020-07-07 13:19:17 GMT -23.099533 -46.928249 17,400 166 365 -1536
2020-07-07 13:19:12 GMT -23.090515 -46.930645 17,550 166 369 -1536
2020-07-07 13:19:09 GMT -23.086761 -46.931595 17,600 167 370 -1536
2020-07-07 13:19:06 GMT -23.081497 -46.932796 17,650 168 370 -1536
2020-07-07 13:18:58 GMT -23.066168 -46.935375 17,900 173 370 -1536
2020-07-07 13:18:54 GMT -23.062723 -46.935730 18,025 176 368 -1600
2020-07-07 13:18:51 GMT -23.055323 -46.936237 18,100 177 369 -1472
2020-07-07 13:18:48 GMT -23.050140 -46.936440 18,175 179 369 -1472
2020-07-07 13:18:45 GMT -23.044334 -46.936493 18,225 182 368 -1472
2020-07-07 13:18:39 GMT -23.034393 -46.935539 18,375 191 365 -1408
2020-07-07 13:18:34 GMT -23.026459 -46.933697 18,475 196 362 -1536
2020-07-07 13:18:29 GMT -23.019337 -46.931355 18,600 198 363 -1472
2020-07-07 13:18:26 GMT -23.011934 -46.928814 18,650 198 363 -1472
2020-07-07 13:18:23 GMT -23.009079 -46.927799 18,750 198 364 -1472
2020-07-07 13:18:19 GMT -23.002579 -46.925606 18,850 198 365 -1472
2020-07-07 13:18:15 GMT -22.992325 -46.922058 19,075 199 364 -1472
2020-07-07 13:18:08 GMT -22.984842 -46.919403 19,125 199 365 -1472
2020-07-07 13:18:05 GMT -22.979023 -46.917370 19,200 199 365 -1472
2020-07-07 13:18:02 GMT -22.974506 -46.915741 19,275 199 365 -1472
2020-07-07 13:17:57 GMT -22.968082 -46.913452 19,375 199 363 -1472
2020-07-07 13:17:54 GMT -22.956957 -46.909485 19,550 199 363 -1472
2020-07-07 13:17:51 GMT -22.948345 -46.906384 19,600 199 364 -1472
2020-07-07 13:17:46 GMT -22.948345 -46.906384 19,675 199 364 -1472
2020-07-07 13:17:43 GMT -22.943039 -46.904449 19,725 199 364 -1472
2020-07-07 13:17:40 GMT -22.939964 -46.903332 19,800 199 363 -1472
2020-07-07 13:17:36 GMT -22.933731 -46.901085 19,850 199 363 -1472
2020-07-07 13:17:31 GMT -22.927460 -46.898838 19,975 199 363 -1472
2020-07-07 13:17:28 GMT -22.922508 -46.897022 20,050 199 363 -1472
2020-07-07 13:17:25 GMT -22.917068 -46.895042 20,150 199 363 -1472
2020-07-07 13:17:22 GMT -22.910452 -46.892700 20,250 199 365 -1472
2020-07-07 13:17:19 GMT -22.905487 -46.890945 20,300 199 366 -1472
2020-07-07 13:17:15 GMT -22.899046 -46.888630 20,350 199 367 -1472
2020-07-07 13:17:11 GMT -22.892532 -46.886353 20,500 199 370 -1472
2020-07-07 13:17:08 GMT -22.887966 -46.884766 20,575 199 370 -1536
2020-07-07 13:17:04 GMT -22.882050 -46.882656 20,675 199 372 -1536
2020-07-07 13:16:59 GMT -22.875118 -46.880238 20,775 199 373 -1472
2020-07-07 13:16:55 GMT -22.866507 -46.877186 20,900 199 376 -1536
2020-07-07 13:16:50 GMT -22.858200 -46.874268 21,025 199 378 -1472
2020-07-07 13:16:47 GMT -22.852539 -46.872204 21,125 199 380 -1536
2020-07-07 13:16:43 GMT -22.846163 -46.869965 21,200 199 381 -1536
2020-07-07 13:16:39 GMT -22.839432 -46.867577 21,300 199 382 -1536
2020-07-07 13:16:36 GMT -22.834717 -46.865879 21,375 199 384 -1536
2020-07-07 13:16:32 GMT -22.828611 -46.863708 21,475 199 386 -1536
2020-07-07 13:16:28 GMT -22.821121 -46.861084 21,575 199 387 -1600
2020-07-07 13:16:25 GMT -22.816315 -46.859386 21,650 199 388 -1536
2020-07-07 13:16:21 GMT -22.810503 -46.857300 21,700 199 389 -1536
2020-07-07 13:16:17 GMT -22.803009 -46.854706 22,225 199 396 -1600
2020-07-07 13:16:14 GMT -22.797840 -46.852825 21,975 199 391 -1600
2020-07-07 13:16:11 GMT -22.791929 -46.850788 22,025 199 392 -1600
2020-07-07 13:16:06 GMT -22.784637 -46.848202 22,150 199 392 -1536
2020-07-07 13:16:03 GMT -22.779099 -46.846252 22,275 199 391 -1600
2020-07-07 13:15:59 GMT -22.773495 -46.844280 22,300 199 391 -1600
2020-07-07 13:15:56 GMT -22.766006 -46.841606 22,425 199 391 -1536
2020-07-07 13:15:52 GMT -22.760513 -46.839661 22,500 199 391 -1536
2020-07-07 13:15:49 GMT -22.755615 -46.837963 22,575 199 392 -1536
2020-07-07 13:15:45 GMT -22.742119 -46.833191 22,775 199 393 -1600
2020-07-07 13:15:42 GMT -22.742119 -46.833191 22,775 199 393 -1600
2020-07-07 13:15:39 GMT -22.737137 -46.831409 22,850 199 392 -1600
2020-07-07 13:15:34 GMT -22.728653 -46.828426 22,925 199 394 -1600
2020-07-07 13:15:31 GMT -22.722521 -46.826275 23,075 199 396 -1600
2020-07-07 13:15:27 GMT -22.718124 -46.824730 23,100 199 395 -1536
2020-07-07 13:15:23 GMT -22.699722 -46.818237 23,350 199 398 -1600
2020-07-07 13:15:18 GMT -22.699722 -46.818237 23,425 199 398 -1536
2020-07-07 13:15:14 GMT -22.692627 -46.815739 23,550 199 400 -1600
2020-07-07 13:15:11 GMT -22.690166 -46.814880 23,550 199 400 -1600
2020-07-07 13:15:07 GMT -22.680622 -46.811523 23,700 198 401 -1600
2020-07-07 13:15:02 GMT -22.671684 -46.808422 23,800 199 402 -1664
2020-07-07 13:14:59 GMT -22.666351 -46.806503 23,950 199 405 -1664
2020-07-07 13:14:55 GMT -22.661722 -46.804859 23,950 199 405 -1664
2020-07-07 13:14:51 GMT -22.651382 -46.801258 24,125 198 407 -1600
2020-07-07 13:14:46 GMT -22.642263 -46.798046 24,275 199 409 -1664
2020-07-07 13:14:40 GMT -22.632523 -46.794617 24,425 198 411 -1664
2020-07-07 13:14:35 GMT -22.622711 -46.791180 24,575 199 412 -1664
2020-07-07 13:14:31 GMT -22.615768 -46.788723 24,650 199 413 -1664
2020-07-07 13:14:28 GMT -22.613022 -46.787773 24,725 199 413 -1664
2020-07-07 13:14:24 GMT -22.604095 -46.784630 24,850 199 414 -1664
2020-07-07 13:14:21 GMT -22.595306 -46.781532 24,900 199 414 -1664
2020-07-07 13:14:17 GMT -22.592422 -46.780434 25,025 200 415 -1664
2020-07-07 13:14:14 GMT -22.584446 -46.777294 25,150 202 415 -1728
2020-07-07 13:14:10 GMT -22.578186 -46.774544 25,200 203 415 -1664
2020-07-07 13:14:07 GMT -22.572016 -46.771748 25,350 205 414 -1728
2020-07-07 13:14:03 GMT -22.566055 -46.768799 25,450 206 414 -1728
2020-07-07 13:13:57 GMT -22.555397 -46.763103 25,800 211 412 -1600
2020-07-07 13:13:52 GMT -22.547836 -46.758659 25,700 210 413 -1664
2020-07-07 13:13:49 GMT -22.540733 -46.754150 25,925 213 409 -1344
2020-07-07 13:13:45 GMT -22.537476 -46.751965 25,900 213 410 -1472
2020-07-07 13:13:40 GMT -22.527327 -46.744793 26,000 215 406 -960
2020-07-07 13:13:37 GMT -22.523602 -46.741993 26,050 217 405 -704
2020-07-07 13:13:33 GMT -22.516340 -46.736298 26,100 217 404 -832
2020-07-07 13:13:29 GMT -22.511215 -46.732193 26,125 217 404 -896
2020-07-07 13:13:25 GMT -22.505127 -46.727402 26,150 217 404 -896
2020-07-07 13:13:20 GMT -22.498138 -46.721851 26,250 217 408 -832
2020-07-07 13:13:17 GMT -22.488144 -46.713917 26,350 217 414 -832
2020-07-07 13:13:11 GMT -22.483658 -46.710423 26,400 217 419 -896
2020-07-07 13:13:08 GMT -22.478027 -46.705929 26,425 217 420 -896
2020-07-07 13:13:04 GMT -22.472673 -46.701710 26,475 217 424 -960
2020-07-07 13:13:00 GMT -22.466629 -46.696938 26,575 217 431 -896
2020-07-07 13:12:57 GMT -22.461456 -46.692844 26,600 217 432 -896
2020-07-07 13:12:53 GMT -22.454006 -46.686909 26,650 217 434 -832
2020-07-07 13:12:48 GMT -22.447489 -46.681774 26,700 217 436 -768
2020-07-07 13:12:45 GMT -22.441017 -46.676586 26,750 217 435 -768
2020-07-07 13:12:42 GMT -22.430374 -46.668175 26,850 217 436 -896
2020-07-07 13:12:38 GMT -22.430374 -46.668175 26,875 217 437 -1152
2020-07-07 13:12:35 GMT -22.419800 -46.659836 26,925 217 438 -1344
2020-07-07 13:12:31 GMT -22.419800 -46.659836 27,000 217 439 -1664
2020-07-07 13:12:26 GMT -22.405975 -46.648849 27,300 217 442 -2368
2020-07-07 13:12:19 GMT -22.399338 -46.643604 27,450 217 443 -2432
2020-07-07 13:12:16 GMT -22.394028 -46.639408 27,550 217 445 -2432
2020-07-07 13:12:13 GMT -22.387762 -46.634521 27,725 217 445 -2432
2020-07-07 13:12:08 GMT -22.374619 -46.624081 27,975 217 446 -2368
2020-07-07 13:12:04 GMT -22.374619 -46.624081 28,050 217 446 -2368
2020-07-07 13:12:01 GMT -22.370304 -46.620636 28,150 217 446 -2368
2020-07-07 13:11:56 GMT -22.360565 -46.612942 28,350 217 445 -2368
2020-07-07 13:11:53 GMT -22.356583 -46.609798 28,450 217 445 -2432
2020-07-07 13:11:50 GMT -22.352383 -46.606495 28,550 217 444 -2432
2020-07-07 13:11:47 GMT -22.348022 -46.603004 28,650 217 444 -2368
2020-07-07 13:11:44 GMT -22.340326 -46.596935 28,875 217 443 -2368
2020-07-07 13:11:41 GMT -22.335434 -46.593067 28,950 217 443 -2432
2020-07-07 13:11:37 GMT -22.329712 -46.588543 29,100 217 442 -2368
2020-07-07 13:11:33 GMT -22.322113 -46.582531 29,225 217 441 -2368
2020-07-07 13:11:30 GMT -22.317841 -46.579132 29,300 217 440 -2368
2020-07-07 13:11:27 GMT -22.312580 -46.574963 29,500 217 439 -2304
2020-07-07 13:11:21 GMT -22.303070 -46.567448 29,800 217 438 -2304
2020-07-07 13:11:18 GMT -22.297852 -46.563305 29,850 217 437 -2304
2020-07-07 13:11:15 GMT -22.294891 -46.560974 29,925 217 437 -2304
2020-07-07 13:11:12 GMT -22.288979 -46.556293 30,075 217 435 -2304
2020-07-07 13:11:09 GMT -22.277573 -46.547325 30,400 217 434 -2368
2020-07-07 13:11:05 GMT -22.277573 -46.547325 30,325 217 434 -2368
2020-07-07 13:11:01 GMT -22.265562 -46.537830 30,575 217 434 -2368
2020-07-07 13:10:53 GMT -22.255835 -46.530151 30,850 217 434 -2304
2020-07-07 13:10:50 GMT -22.248058 -46.523998 30,975 217 434 -2304
2020-07-07 13:10:47 GMT -22.243195 -46.520157 31,150 217 434 -2304
2020-07-07 13:10:40 GMT -22.237518 -46.515713 31,325 217 433 -2368
2020-07-07 13:10:37 GMT -22.231346 -46.510822 31,425 217 433 -2304
2020-07-07 13:10:30 GMT -22.220535 -46.502281 31,725 217 432 -2304
2020-07-07 13:10:23 GMT -22.208405 -46.492691 31,975 217 429 -2304
2020-07-07 13:10:19 GMT -22.201859 -46.487549 32,125 217 426 -2304
2020-07-07 13:10:16 GMT -22.196274 -46.483105 32,250 217 423 -2240
2020-07-07 13:10:12 GMT -22.190800 -46.478779 32,375 217 419 -2112
2020-07-07 13:10:08 GMT -22.184282 -46.473541 32,575 217 412 -2112
2020-07-07 13:10:05 GMT -22.179674 -46.469929 32,650 217 409 -2112
2020-07-07 13:09:59 GMT -22.173576 -46.465099 32,775 217 404 -2176
2020-07-07 13:09:56 GMT -22.166794 -46.459782 32,950 217 401 -2112
2020-07-07 13:09:50 GMT -22.157684 -46.452541 33,150 217 399 -2112
2020-07-07 13:09:44 GMT -22.148996 -46.445721 33,475 217 399 -2112
2020-07-07 13:09:39 GMT -22.140617 -46.439106 33,550 217 400 -2176
2020-07-07 13:09:34 GMT -22.134611 -46.434376 33,650 217 399 -2112
2020-07-07 13:09:29 GMT -22.128342 -46.429420 33,850 217 400 -2112
2020-07-07 13:09:25 GMT -22.120651 -46.423378 34,100 217 402 -2112
2020-07-07 13:09:22 GMT -22.116440 -46.420033 34,200 217 402 -2112
2020-07-07 13:09:19 GMT -22.112406 -46.416882 34,225 217 402 -2112
2020-07-07 13:09:16 GMT -22.108521 -46.413792 34,325 217 402 -2112
2020-07-07 13:09:13 GMT -22.102615 -46.409195 34,425 217 402 -2112
2020-07-07 13:09:10 GMT -22.098267 -46.405750 34,525 217 402 -2176
2020-07-07 13:09:07 GMT -22.092957 -46.401554 34,700 217 403 -2176
2020-07-07 13:09:02 GMT -22.085587 -46.395763 34,800 217 403 -2176
2020-07-07 13:08:59 GMT -22.083496 -46.394093 34,925 217 404 -2240
2020-07-07 13:08:56 GMT -22.076839 -46.388855 35,100 217 404 -2304
2020-07-07 13:08:52 GMT -22.070787 -46.384125 35,250 217 404 -2368
2020-07-07 13:08:49 GMT -22.066864 -46.381031 35,350 217 404 -2432
2020-07-07 13:08:45 GMT -22.060776 -46.376236 35,500 217 404 -2432
2020-07-07 13:08:42 GMT -22.055008 -46.371662 35,650 217 405 -2112
2020-07-07 13:08:38 GMT -22.049047 -46.366985 35,750 217 406 -1728
2020-07-07 13:08:34 GMT -22.043509 -46.362659 35,850 217 407 -1408
2020-07-07 13:08:31 GMT -22.038574 -46.358795 35,925 217 410 -1024
2020-07-07 13:08:28 GMT -22.031172 -46.352997 35,975 217 412 -640
2020-07-07 13:08:25 GMT -22.031172 -46.352997 35,975 217 412 -640
2020-07-07 13:08:20 GMT -22.021397 -46.345318 36,000 217 418 -64
2020-07-07 13:08:15 GMT -22.014973 -46.340282 36,000 217 421 0
2020-07-07 13:08:12 GMT -22.008957 -46.335537 36,000 217 424 -64
2020-07-07 13:08:08 GMT -22.002594 -46.330544 36,000 217 424 0
2020-07-07 13:08:04 GMT -21.997841 -46.326801 36,000 217 425 64
2020-07-07 13:07:59 GMT -21.987305 -46.318508 36,000 217 424 0
2020-07-07 13:07:53 GMT -21.980942 -46.313515 36,000 217 424 0
2020-07-07 13:07:49 GMT -21.968307 -46.303627 36,000 217 424 -64
2020-07-07 13:07:46 GMT -21.968307 -46.303627 36,000 217 424 0
2020-07-07 13:07:43 GMT -21.963579 -46.299896 36,000 217 424 0
2020-07-07 13:07:39 GMT -21.958099 -46.295589 36,000 217 424 64
2020-07-07 13:07:36 GMT -21.946106 -46.286148 36,000 217 424 0
2020-07-07 13:07:32 GMT -21.946106 -46.286148 36,000 217 424 0
2020-07-07 13:07:27 GMT -21.936857 -46.278889 36,000 217 424 64
2020-07-07 13:07:20 GMT -21.928572 -46.272381 36,000 217 424 -64
2020-07-07 13:07:15 GMT -21.918423 -46.264393 36,000 217 424 0
2020-07-07 13:07:10 GMT -21.912045 -46.259411 36,000 217 424 64
2020-07-07 13:07:07 GMT -21.905502 -46.254288 36,000 217 425 64
2020-07-07 13:07:00 GMT -21.894308 -46.245472 36,000 217 425 0
2020-07-07 13:06:56 GMT -21.888885 -46.241203 36,000 217 425 0
2020-07-07 13:06:53 GMT -21.885040 -46.238209 36,000 217 425 0
2020-07-07 13:06:49 GMT -21.877085 -46.231995 36,000 217 425 -64
2020-07-07 13:06:42 GMT -21.867233 -46.224228 36,000 217 425 64
2020-07-07 13:06:37 GMT -21.859085 -46.217884 36,000 217 425 64
2020-07-07 13:06:34 GMT -21.853577 -46.213531 36,000 217 425 -64
2020-07-07 13:06:31 GMT -21.849108 -46.210022 36,000 217 425 -64
2020-07-07 13:06:27 GMT -21.842262 -46.204681 36,000 217 425 -64
2020-07-07 13:06:23 GMT -21.832901 -46.197311 36,000 217 425 64
2020-07-07 13:06:15 GMT -21.821733 -46.188557 36,000 217 425 64
2020-07-07 13:06:11 GMT -21.815781 -46.183926 36,000 217 425 64
2020-07-07 13:06:04 GMT -21.805813 -46.176098 36,000 217 426 -64
2020-07-07 13:06:00 GMT -21.799435 -46.171112 36,000 217 426 0
2020-07-07 13:05:56 GMT -21.794361 -46.167095 36,000 217 426 64
2020-07-07 13:05:52 GMT -21.786493 -46.160938 36,000 217 426 -64
2020-07-07 13:05:45 GMT -21.777603 -46.154015 36,000 217 426 -64
2020-07-07 13:05:42 GMT -21.772669 -46.150105 36,000 217 426 0
2020-07-07 13:05:39 GMT -21.766245 -46.145123 36,000 217 427 0
2020-07-07 13:05:35 GMT -21.760803 -46.140831 36,000 217 427 0
2020-07-07 13:05:31 GMT -21.754440 -46.135838 36,000 217 427 64
2020-07-07 13:05:28 GMT -21.748856 -46.131493 36,000 217 427 64
2020-07-07 13:05:24 GMT -21.743385 -46.127216 36,000 217 427 0
2020-07-07 13:05:20 GMT -21.734573 -46.120304 36,000 217 427 -64
2020-07-07 13:05:13 GMT -21.725929 -46.113537 36,000 217 427 0
2020-07-07 13:05:09 GMT -21.717407 -46.106873 36,000 217 427 0
2020-07-07 13:05:00 GMT -21.703445 -46.095989 36,000 217 427 64
2020-07-07 13:04:56 GMT -21.697067 -46.090954 36,000 217 427 64
2020-07-07 13:04:52 GMT -21.692276 -46.087196 36,000 217 427 0
2020-07-07 13:04:48 GMT -21.683147 -46.080067 36,000 217 427 0
2020-07-07 13:04:44 GMT -21.679237 -46.077015 36,000 217 427 0
2020-07-07 13:04:40 GMT -21.674025 -46.072948 36,000 217 427 0
2020-07-07 13:04:36 GMT -21.667328 -46.067673 36,000 217 427 0
2020-07-07 13:04:33 GMT -21.662201 -46.063675 36,000 217 427 0
2020-07-07 13:04:30 GMT -21.657715 -46.060181 36,000 217 427 64
2020-07-07 13:04:27 GMT -21.650421 -46.054485 36,000 217 427 0
2020-07-07 13:04:24 GMT -21.645861 -46.050922 36,000 217 427 0
2020-07-07 13:04:20 GMT -21.640739 -46.046955 36,000 217 427 0
2020-07-07 13:04:16 GMT -21.633430 -46.041210 36,000 217 427 0
2020-07-07 13:04:13 GMT -21.627983 -46.036938 36,000 217 427 0
2020-07-07 13:04:09 GMT -21.623932 -46.033813 36,000 217 427 0
2020-07-07 13:04:04 GMT -21.611410 -46.024017 36,000 217 427 0
2020-07-07 13:04:01 GMT -21.611410 -46.024017 36,000 217 427 0
2020-07-07 13:03:58 GMT -21.605804 -46.019630 36,000 217 427 64
2020-07-07 13:03:55 GMT -21.593256 -46.009876 36,000 217 428 -64
2020-07-07 13:03:51 GMT -21.593256 -46.009876 36,000 217 428 -64
2020-07-07 13:03:48 GMT -21.590042 -46.007336 36,000 217 428 0
2020-07-07 13:03:44 GMT -21.581711 -46.000874 36,000 217 428 0
2020-07-07 13:03:40 GMT -21.576279 -45.996609 36,000 217 428 64
2020-07-07 13:03:33 GMT -21.564056 -45.987072 36,000 217 428 -64
2020-07-07 13:03:28 GMT -21.558289 -45.982578 36,000 217 428 0
2020-07-07 13:03:22 GMT -21.547215 -45.973919 36,000 217 428 -64
2020-07-07 13:03:19 GMT -21.540985 -45.969093 36,000 217 428 -64
2020-07-07 13:03:13 GMT -21.532970 -45.962830 36,000 217 428 64
2020-07-07 13:03:10 GMT -21.527849 -45.958862 36,000 217 428 0
2020-07-07 13:03:06 GMT -21.520775 -45.953320 36,000 217 428 -64
2020-07-07 13:03:00 GMT -21.506063 -45.941822 36,000 217 427 0
2020-07-07 13:02:57 GMT -21.506063 -45.941822 36,000 217 427 64
2020-07-07 13:02:54 GMT -21.503595 -45.939892 36,000 217 427 64
2020-07-07 13:02:51 GMT -21.491959 -45.930836 36,000 217 427 0
2020-07-07 13:02:44 GMT -21.487930 -45.927696 36,000 217 427 0
2020-07-07 13:02:39 GMT -21.479946 -45.921478 36,000 217 426 0
2020-07-07 13:02:36 GMT -21.473740 -45.916660 36,000 217 426 -64
2020-07-07 13:02:33 GMT -21.467705 -45.911968 36,000 217 426 0
2020-07-07 13:02:29 GMT -21.462864 -45.908154 36,000 217 425 64
2020-07-07 13:02:23 GMT -21.452728 -45.900280 36,000 217 425 -64
2020-07-07 13:02:17 GMT -21.442474 -45.892288 36,000 217 425 64
2020-07-07 13:02:11 GMT -21.431952 -45.884094 36,000 217 425 0
2020-07-07 13:02:07 GMT -21.428740 -45.881603 36,000 217 425 -64
2020-07-07 13:02:04 GMT -21.422968 -45.877075 36,000 217 425 -64
2020-07-07 13:02:01 GMT -21.416885 -45.872364 36,000 217 425 0
2020-07-07 13:01:58 GMT -21.413727 -45.869919 36,000 217 424 64
2020-07-07 13:01:55 GMT -21.402578 -45.861256 36,000 217 425 0
2020-07-07 13:01:47 GMT -21.395187 -45.855484 36,000 217 425 0
2020-07-07 13:01:43 GMT -21.388870 -45.850590 36,000 217 425 0
2020-07-07 13:01:39 GMT -21.381912 -45.845146 36,000 217 425 0
2020-07-07 13:01:34 GMT -21.374268 -45.839207 36,000 217 426 0
2020-07-07 13:01:31 GMT -21.369432 -45.835419 36,000 217 426 -64
2020-07-07 13:01:28 GMT -21.364220 -45.831402 36,000 217 426 0
2020-07-07 13:01:25 GMT -21.361099 -45.829010 36,000 217 426 0
2020-07-07 13:01:22 GMT -21.356873 -45.825672 36,000 217 426 0
2020-07-07 13:01:19 GMT -21.345337 -45.816734 36,000 217 426 0
2020-07-07 13:01:13 GMT -21.339268 -45.812023 36,000 217 427 -64
2020-07-07 13:01:10 GMT -21.336102 -45.809528 36,000 217 427 -64
2020-07-07 13:01:06 GMT -21.330421 -45.805103 36,000 216 426 0
2020-07-07 13:01:01 GMT -21.321030 -45.797806 36,000 217 426 0
2020-07-07 13:00:58 GMT -21.316544 -45.794361 36,000 217 426 0
2020-07-07 13:00:55 GMT -21.303223 -45.784023 36,000 217 426 64
2020-07-07 13:00:50 GMT -21.303223 -45.784023 36,000 217 426 -64
2020-07-07 13:00:46 GMT -21.299240 -45.780930 36,000 217 426 64
2020-07-07 13:00:43 GMT -21.292877 -45.775932 36,000 217 426 0
2020-07-07 13:00:39 GMT -21.285828 -45.770493 36,000 217 426 0
2020-07-07 13:00:36 GMT -21.282623 -45.767994 36,000 217 426 0
2020-07-07 13:00:32 GMT -21.275909 -45.762787 36,000 217 426 0
2020-07-07 13:00:26 GMT -21.265621 -45.754803 36,000 217 426 0
2020-07-07 13:00:21 GMT -21.258591 -45.749359 36,000 216 427 0
2020-07-07 13:00:15 GMT -21.247375 -45.740627 36,000 217 428 0
2020-07-07 13:00:11 GMT -21.241608 -45.736183 36,000 217 428 0
2020-07-07 13:00:05 GMT -21.231825 -45.728558 36,000 217 428 0
2020-07-07 13:00:02 GMT -21.225864 -45.723980 36,000 217 428 0
2020-07-07 12:59:59 GMT -21.224051 -45.722553 36,000 217 428 -64
2020-07-07 12:59:56 GMT -21.213156 -45.714111 36,000 217 428 0
2020-07-07 12:59:50 GMT -21.207001 -45.709366 36,000 217 428 0
2020-07-07 12:59:45 GMT -21.199997 -45.703922 36,000 217 428 0
2020-07-07 12:59:42 GMT -21.195187 -45.700176 36,000 217 428 64
2020-07-07 12:59:39 GMT -21.190533 -45.696564 36,000 217 426 0
2020-07-07 12:59:33 GMT -21.180588 -45.688843 36,000 216 427 0
2020-07-07 12:59:30 GMT -21.178024 -45.686893 36,000 216 427 0
2020-07-07 12:59:27 GMT -21.172703 -45.682781 36,000 216 426 0
2020-07-07 12:59:21 GMT -21.160721 -45.673462 36,000 217 426 0
2020-07-07 12:59:18 GMT -21.154999 -45.669018 36,000 217 426 0
2020-07-07 12:59:10 GMT -21.145050 -45.661316 36,000 217 426 64
2020-07-07 12:59:07 GMT -21.138336 -45.656082 36,000 217 426 0
2020-07-07 12:59:00 GMT -21.128723 -45.648643 36,000 217 426 0
2020-07-07 12:58:55 GMT -21.122007 -45.643463 36,000 216 427 0
2020-07-07 12:58:52 GMT -21.115265 -45.638256 36,000 216 427 -64
2020-07-07 12:58:48 GMT -21.110092 -45.634262 36,000 216 427 0
2020-07-07 12:58:45 GMT -21.098871 -45.625561 36,000 216 427 0
2020-07-07 12:58:42 GMT -21.098871 -45.625561 36,000 216 427 0
2020-07-07 12:58:39 GMT -21.093750 -45.621593 36,000 216 427 0
2020-07-07 12:58:35 GMT -21.087799 -45.616982 36,000 216 427 64
2020-07-07 12:58:29 GMT -21.078295 -45.609638 36,000 216 427 0
2020-07-07 12:58:26 GMT -21.072662 -45.605267 36,000 217 426 0
2020-07-07 12:58:23 GMT -21.068983 -45.602467 36,000 217 426 0
2020-07-07 12:58:17 GMT -21.052645 -45.589752 36,000 217 425 0
2020-07-07 12:58:13 GMT -21.052645 -45.589752 36,000 217 425 64
2020-07-07 12:58:06 GMT -21.043055 -45.582378 36,000 217 424 64
2020-07-07 12:58:03 GMT -21.036676 -45.577442 36,000 217 423 -64
2020-07-07 12:58:00 GMT -21.031952 -45.573734 36,000 216 423 -64
2020-07-07 12:57:57 GMT -21.026529 -45.569542 36,000 216 423 -64
2020-07-07 12:57:53 GMT -21.019499 -45.564148 36,000 216 426 0
2020-07-07 12:57:49 GMT -21.013123 -45.559204 36,000 216 427 0
2020-07-07 12:57:46 GMT -21.009521 -45.556477 36,000 216 428 64
2020-07-07 12:57:42 GMT -21.002787 -45.551212 36,000 216 428 0
2020-07-07 12:57:39 GMT -20.997013 -45.546768 36,000 216 428 0
2020-07-07 12:57:34 GMT -20.992172 -45.543037 36,000 216 428 -64
2020-07-07 12:57:31 GMT -20.984863 -45.537430 36,000 216 428 -64
2020-07-07 12:57:25 GMT -20.975182 -45.529892 36,000 216 427 64
2020-07-07 12:57:22 GMT -20.970978 -45.526707 36,000 216 427 64
2020-07-07 12:57:19 GMT -20.967728 -45.524155 36,000 217 426 0
2020-07-07 12:57:14 GMT -20.957474 -45.516258 36,000 217 425 0
2020-07-07 12:57:09 GMT -20.951157 -45.511356 36,000 216 423 64
2020-07-07 12:57:05 GMT -20.945715 -45.507168 36,000 216 422 64
2020-07-07 12:57:02 GMT -20.941244 -45.503723 36,000 216 421 64
2020-07-07 12:56:59 GMT -20.933750 -45.497879 36,000 216 421 0
2020-07-07 12:56:53 GMT -20.924208 -45.490540 36,000 216 419 -64
2020-07-07 12:56:48 GMT -20.916962 -45.484966 36,000 216 421 64
2020-07-07 12:56:42 GMT -20.906799 -45.477119 36,000 216 422 0
2020-07-07 12:56:36 GMT -20.899933 -45.471825 36,000 216 422 64
2020-07-07 12:56:33 GMT -20.895065 -45.468067 36,000 216 422 64
2020-07-07 12:56:30 GMT -20.890366 -45.464466 36,000 216 422 -64
2020-07-07 12:56:27 GMT -20.882767 -45.458580 36,000 216 422 0
2020-07-07 12:56:20 GMT -20.873840 -45.451668 36,000 216 422 0
2020-07-07 12:56:16 GMT -20.865738 -45.445438 36,000 216 423 0
2020-07-07 12:56:10 GMT -20.856171 -45.438080 36,000 216 423 -64
2020-07-07 12:56:05 GMT -20.849030 -45.432537 36,000 217 425 -128
2020-07-07 12:55:58 GMT -20.839109 -45.424919 36,000 216 426 -128
2020-07-07 12:55:54 GMT -20.831085 -45.418755 36,025 216 426 -64
2020-07-07 12:55:45 GMT -20.816299 -45.407375 35,900 216 431 1536
2020-07-07 12:55:42 GMT -20.813095 -45.404877 35,900 216 431 1536
2020-07-07 12:55:37 GMT -20.804335 -45.398155 35,700 216 434 1856
2020-07-07 12:55:34 GMT -20.797119 -45.392612 35,575 216 436 1280
2020-07-07 12:55:31 GMT -20.795471 -45.391338 35,575 216 436 1280
2020-07-07 12:55:27 GMT -20.786646 -45.384521 35,475 216 436 1088
2020-07-07 12:55:22 GMT -20.779083 -45.378685 35,425 216 436 1024
2020-07-07 12:55:15 GMT -20.769699 -45.371487 35,325 216 436 768
2020-07-07 12:55:11 GMT -20.761042 -45.364796 35,275 216 436 448
2020-07-07 12:55:06 GMT -20.752853 -45.358528 35,250 216 434 192
2020-07-07 12:55:02 GMT -20.746004 -45.353260 35,250 216 433 128
2020-07-07 12:54:58 GMT -20.740326 -45.348866 35,250 216 431 128
2020-07-07 12:54:55 GMT -20.734972 -45.344772 35,250 216 430 128
2020-07-07 12:54:48 GMT -20.721130 -45.334103 35,225 216 427 128
2020-07-07 12:54:44 GMT -20.718212 -45.331886 35,225 216 426 128
2020-07-07 12:54:39 GMT -20.709274 -45.324947 35,200 216 424 256
2020-07-07 12:54:34 GMT -20.701309 -45.318848 35,175 216 423 384
2020-07-07 12:54:27 GMT -20.683594 -45.305214 35,100 216 421 768
2020-07-07 12:54:23 GMT -20.683594 -45.305214 35,075 216 421 896
2020-07-07 12:54:17 GMT -20.670273 -45.295013 34,925 216 421 1152
2020-07-07 12:54:14 GMT -20.666382 -45.291969 34,825 216 421 1216
2020-07-07 12:54:07 GMT -20.649549 -45.279053 34,725 216 421 1216
2020-07-07 12:54:00 GMT -20.649549 -45.279053 34,625 216 422 1280
2020-07-07 12:53:56 GMT -20.632324 -45.265820 34,400 216 423 1408
2020-07-07 12:53:51 GMT -20.632324 -45.265820 34,375 216 423 1408
2020-07-07 12:53:47 GMT -20.626923 -45.261662 34,275 216 424 1472
2020-07-07 12:53:43 GMT -20.619661 -45.256130 34,175 216 424 1472
2020-07-07 12:53:40 GMT -20.616074 -45.253372 34,125 216 425 1536
2020-07-07 12:53:35 GMT -20.608677 -45.247692 33,975 216 426 1536
2020-07-07 12:53:32 GMT -20.601974 -45.242535 33,900 216 426 1536
2020-07-07 12:53:29 GMT -20.598907 -45.240177 33,850 216 428 1536
2020-07-07 12:53:24 GMT -20.589111 -45.232674 33,675 216 429 1536
2020-07-07 12:53:19 GMT -20.581816 -45.227066 33,575 216 429 1472
2020-07-07 12:53:13 GMT -20.571341 -45.219028 33,425 216 430 1408
2020-07-07 12:53:08 GMT -20.563889 -45.213303 33,325 216 431 1408
2020-07-07 12:53:04 GMT -20.558029 -45.208839 33,225 216 431 1408
2020-07-07 12:53:01 GMT -20.554138 -45.205849 33,100 216 431 1408
2020-07-07 12:52:58 GMT -20.548622 -45.201599 33,100 216 431 1408
2020-07-07 12:52:54 GMT -20.540497 -45.195351 32,975 216 433 1408
2020-07-07 12:52:51 GMT -20.536892 -45.192612 32,900 216 433 1408
2020-07-07 12:52:47 GMT -20.529163 -45.186668 32,825 216 434 1344
2020-07-07 12:52:41 GMT -20.519295 -45.179127 32,650 216 434 1408
2020-07-07 12:52:38 GMT -20.515989 -45.176579 32,625 216 434 1408
2020-07-07 12:52:35 GMT -20.510777 -45.172585 32,550 216 434 1408
2020-07-07 12:52:30 GMT -20.501699 -45.165592 32,425 216 435 1472
2020-07-07 12:52:27 GMT -20.497971 -45.162785 32,350 216 435 1536
2020-07-07 12:52:22 GMT -20.488129 -45.155231 32,200 216 436 1728
2020-07-07 12:52:17 GMT -20.480658 -45.149513 32,125 216 437 1792
2020-07-07 12:52:14 GMT -20.476959 -45.146648 32,000 216 439 1856
2020-07-07 12:52:10 GMT -20.469997 -45.141373 31,875 216 439 1920
2020-07-07 12:52:07 GMT -20.465698 -45.138065 31,800 216 440 1920
2020-07-07 12:52:04 GMT -20.459061 -45.133015 31,675 216 441 1856
2020-07-07 12:51:58 GMT -20.448395 -45.124821 31,475 216 442 1472
2020-07-07 12:51:55 GMT -20.445053 -45.122272 31,450 216 443 1408
2020-07-07 12:51:50 GMT -20.435028 -45.114571 31,300 216 443 1408
2020-07-07 12:51:47 GMT -20.430660 -45.111263 31,250 216 443 1472
2020-07-07 12:51:42 GMT -20.424004 -45.106167 31,175 216 443 1472
2020-07-07 12:51:39 GMT -20.417633 -45.101280 31,050 216 444 1344
2020-07-07 12:51:34 GMT -20.408478 -45.094269 30,950 216 443 1152
2020-07-07 12:51:27 GMT -20.399643 -45.087498 30,875 216 442 960
2020-07-07 12:51:24 GMT -20.394287 -45.083427 30,800 216 441 896
2020-07-07 12:51:21 GMT -20.388336 -45.078865 30,775 216 441 832
2020-07-07 12:51:18 GMT -20.381699 -45.073765 30,700 216 440 896
2020-07-07 12:51:15 GMT -20.376480 -45.069794 30,650 216 439 896
2020-07-07 12:51:10 GMT -20.370747 -45.065418 30,625 216 439 896
2020-07-07 12:51:04 GMT -20.358582 -45.056110 30,525 216 436 704
2020-07-07 12:50:59 GMT -20.351990 -45.051056 30,475 216 435 704
2020-07-07 12:50:56 GMT -20.346268 -45.046692 30,425 216 434 704
2020-07-07 12:50:53 GMT -20.341690 -45.043209 30,375 216 432 832
2020-07-07 12:50:49 GMT -20.334717 -45.037853 30,350 216 432 960
2020-07-07 12:50:46 GMT -20.328991 -45.033508 30,275 216 431 1024
2020-07-07 12:50:40 GMT -20.321030 -45.027416 30,200 216 430 1088
2020-07-07 12:50:37 GMT -20.317772 -45.024918 30,150 216 430 1088
2020-07-07 12:50:32 GMT -20.300629 -45.011822 30,000 216 429 1152
2020-07-07 12:50:28 GMT -20.300629 -45.011822 29,975 216 427 1152
2020-07-07 12:50:21 GMT -20.283554 -44.998753 29,800 216 426 1152
2020-07-07 12:50:17 GMT -20.283554 -44.998753 29,775 216 426 1152
2020-07-07 12:50:14 GMT -20.277130 -44.993858 29,675 216 426 1152
2020-07-07 12:50:10 GMT -20.265289 -44.984795 29,600 216 425 1152
2020-07-07 12:50:05 GMT -20.265289 -44.984795 29,550 216 424 1216
2020-07-07 12:50:02 GMT -20.261303 -44.981724 29,500 216 424 1152
2020-07-07 12:49:59 GMT -20.255081 -44.976997 29,400 216 424 1216
2020-07-07 12:49:56 GMT -20.249664 -44.972885 29,350 216 422 1216
2020-07-07 12:49:53 GMT -20.243729 -44.968315 29,275 216 422 1280
2020-07-07 12:49:49 GMT -20.237869 -44.963852 29,200 216 421 1280
2020-07-07 12:49:45 GMT -20.232147 -44.959488 29,125 216 421 1280
2020-07-07 12:49:42 GMT -20.226854 -44.955456 29,050 216 421 1344
2020-07-07 12:49:38 GMT -20.220383 -44.950512 28,925 216 420 1344
2020-07-07 12:49:33 GMT -20.214981 -44.946392 28,875 216 420 1344
2020-07-07 12:49:30 GMT -20.209723 -44.942421 28,800 216 419 1408
2020-07-07 12:49:25 GMT -20.196671 -44.932415 28,725 216 419 1344
2020-07-07 12:49:21 GMT -20.192871 -44.929520 28,575 216 419 1280
2020-07-07 12:49:13 GMT -20.181610 -44.920986 28,400 216 417 1216
2020-07-07 12:49:10 GMT -20.176483 -44.917065 28,350 216 417 1216
2020-07-07 12:49:06 GMT -20.169754 -44.911915 28,250 216 416 1216
2020-07-07 12:49:01 GMT -20.161423 -44.905537 28,150 216 415 1280
2020-07-07 12:48:58 GMT -20.159683 -44.904213 28,125 216 415 1344
2020-07-07 12:48:55 GMT -20.153320 -44.899357 28,025 216 414 1600
2020-07-07 12:48:49 GMT -20.143015 -44.891483 27,850 216 414 1856
2020-07-07 12:48:44 GMT -20.136124 -44.886242 27,725 216 415 1856
2020-07-07 12:48:41 GMT -20.126116 -44.878651 27,525 216 416 1856
2020-07-07 12:48:30 GMT -20.114502 -44.869781 27,300 216 416 1792
2020-07-07 12:48:27 GMT -20.109512 -44.866005 27,200 216 416 1728
2020-07-07 12:48:22 GMT -20.102600 -44.860710 27,050 216 416 1664
2020-07-07 12:48:19 GMT -20.097904 -44.857128 27,000 216 416 1664
2020-07-07 12:48:16 GMT -20.092575 -44.853107 26,900 216 416 1664
2020-07-07 12:48:09 GMT -20.081268 -44.844524 26,725 216 415 1536
2020-07-07 12:48:06 GMT -20.075638 -44.840206 26,625 216 414 1536
2020-07-07 12:48:01 GMT -20.068268 -44.834618 26,500 216 414 1536
2020-07-07 12:47:58 GMT -20.064377 -44.831673 26,450 216 414 1536
2020-07-07 12:47:55 GMT -20.060431 -44.828613 26,375 216 414 1536
2020-07-07 12:47:50 GMT -20.052237 -44.822422 26,225 216 413 1472
2020-07-07 12:47:45 GMT -20.043320 -44.815636 26,125 216 412 1472
2020-07-07 12:47:37 GMT -20.031101 -44.806339 25,925 216 411 1472
2020-07-07 12:47:29 GMT -20.014709 -44.793907 25,700 216 409 1472
2020-07-07 12:47:22 GMT -20.009455 -44.789909 25,575 216 408 1472
2020-07-07 12:47:18 GMT -20.001755 -44.784100 25,425 216 407 1408
2020-07-07 12:47:12 GMT -19.992184 -44.776829 25,325 216 407 1344
2020-07-07 12:47:05 GMT -19.982071 -44.769188 25,175 216 404 1472
2020-07-07 12:47:00 GMT -19.975006 -44.763844 25,050 216 404 1472
2020-07-07 12:46:54 GMT -19.960098 -44.752609 24,800 216 402 1536
2020-07-07 12:46:50 GMT -19.960098 -44.752609 24,800 216 402 1536
2020-07-07 12:46:44 GMT -19.950661 -44.745518 24,675 216 400 1408
2020-07-07 12:46:40 GMT -19.943443 -44.740124 24,550 216 399 1536
2020-07-07 12:46:29 GMT -19.927322 -44.728039 24,275 216 397 1408
2020-07-07 12:46:22 GMT -19.917376 -44.720596 24,150 216 396 1344
2020-07-07 12:46:17 GMT -19.911209 -44.716022 24,075 216 394 1344
2020-07-07 12:46:08 GMT -19.895403 -44.704018 23,825 217 390 1216
2020-07-07 12:46:03 GMT -19.889923 -44.699642 23,700 218 387 1408
2020-07-07 12:46:00 GMT -19.885626 -44.696129 23,700 219 387 1408
2020-07-07 12:45:56 GMT -19.879528 -44.690834 23,575 222 385 1408
2020-07-07 12:45:50 GMT -19.871704 -44.682476 23,425 229 382 1408
2020-07-07 12:45:46 GMT -19.866852 -44.676048 23,325 234 381 1408
2020-07-07 12:45:39 GMT -19.860809 -44.666142 23,175 242 378 1408
2020-07-07 12:45:35 GMT -19.857416 -44.659023 23,075 246 376 1408
2020-07-07 12:45:27 GMT -19.853256 -44.647751 22,900 252 374 1536
2020-07-07 12:45:23 GMT -19.851225 -44.640247 22,800 257 373 1600
2020-07-07 12:45:18 GMT -19.848999 -44.629112 22,625 260 372 1856
2020-07-07 12:45:14 GMT -19.847534 -44.621166 22,475 260 372 2048
2020-07-07 12:45:07 GMT -19.845497 -44.610085 22,250 260 372 2304
2020-07-07 12:45:03 GMT -19.844055 -44.602146 22,150 260 373 2304
2020-07-07 12:44:58 GMT -19.842957 -44.596008 21,950 260 373 2304
2020-07-07 12:44:55 GMT -19.841904 -44.590267 21,850 260 373 2176
2020-07-07 12:44:51 GMT -19.840378 -44.581970 21,650 260 374 2112
2020-07-07 12:44:47 GMT -19.839294 -44.575947 21,550 260 374 2112
2020-07-07 12:44:43 GMT -19.837490 -44.566090 21,350 260 374 2048
2020-07-07 12:44:40 GMT -19.836794 -44.562492 21,300 260 374 2048
2020-07-07 12:44:35 GMT -19.834900 -44.552013 21,100 260 373 1920
2020-07-07 12:44:31 GMT -19.833534 -44.544617 20,975 260 373 1920
2020-07-07 12:44:24 GMT -19.831392 -44.532982 20,750 260 372 2112
2020-07-07 12:44:21 GMT -19.830603 -44.528637 20,525 260 372 2176
2020-07-07 12:44:18 GMT -19.829224 -44.521214 20,525 260 372 2176
2020-07-07 12:44:14 GMT -19.828445 -44.516750 20,425 260 372 2176
2020-07-07 12:44:11 GMT -19.826340 -44.505272 20,200 259 371 2112
2020-07-07 12:44:03 GMT -19.824326 -44.494530 20,000 259 371 1920
2020-07-07 12:43:59 GMT -19.822906 -44.486782 19,925 259 370 1856
2020-07-07 12:43:54 GMT -19.821579 -44.479523 19,750 259 369 1920
2020-07-07 12:43:50 GMT -19.818695 -44.463879 19,450 260 368 2176
2020-07-07 12:43:42 GMT -19.816498 -44.451862 19,300 260 367 2240
2020-07-07 12:43:39 GMT -19.816498 -44.451862 19,200 260 367 2240
2020-07-07 12:43:32 GMT -19.814529 -44.441219 18,925 259 366 1984
2020-07-07 12:43:29 GMT -19.812260 -44.428860 18,775 259 365 1920
2020-07-07 12:43:20 GMT -19.810272 -44.417969 18,550 259 364 1920
2020-07-07 12:43:13 GMT -19.807978 -44.405689 18,325 259 363 1984
2020-07-07 12:43:08 GMT -19.806885 -44.399727 18,250 259 362 2048
2020-07-07 12:43:00 GMT -19.804184 -44.385109 17,725 259 360 2112
2020-07-07 12:42:57 GMT -19.803370 -44.380520 17,725 259 360 2112
2020-07-07 12:42:48 GMT -19.800062 -44.362541 17,475 259 359 2240
2020-07-07 12:42:43 GMT -19.798248 -44.352856 17,250 259 358 2240
2020-07-07 12:42:36 GMT -19.796618 -44.343918 17,075 259 358 2112
2020-07-07 12:42:26 GMT -19.793243 -44.325764 16,675 259 355 1984
2020-07-07 12:42:19 GMT -19.791092 -44.313992 16,500 259 353 1920
2020-07-07 12:42:16 GMT -19.789948 -44.307812 16,375 259 352 1920
2020-07-07 12:42:08 GMT -19.787727 -44.295975 16,150 259 347 1792
2020-07-07 12:42:04 GMT -19.786560 -44.289566 16,100 259 349 1856
2020-07-07 12:41:53 GMT -19.783218 -44.271469 15,775 259 345 1920
2020-07-07 12:41:44 GMT -19.779877 -44.253616 15,375 260 341 1664
2020-07-07 12:41:36 GMT -19.777533 -44.240845 15,150 259 337 1728
2020-07-07 12:41:33 GMT -19.776693 -44.236351 15,075 259 335 1792
2020-07-07 12:41:26 GMT -19.774475 -44.224434 14,875 259 331 1600
2020-07-07 12:41:21 GMT -19.773481 -44.219021 14,775 259 330 1600
2020-07-07 12:41:12 GMT -19.770456 -44.202591 14,475 259 325 1792
2020-07-07 12:41:01 GMT -19.767380 -44.186131 14,150 259 321 1920
2020-07-07 12:40:49 GMT -19.764217 -44.169132 13,800 259 319 2432
2020-07-07 12:40:39 GMT -19.761147 -44.152603 13,200 259 320 3264
2020-07-07 12:40:29 GMT -19.758133 -44.136051 12,575 260 324 3904
2020-07-07 12:40:17 GMT -19.754974 -44.119133 11,950 259 328 3200
2020-07-07 12:40:06 GMT -19.751835 -44.102367 11,425 259 328 2880
2020-07-07 12:39:57 GMT -19.748762 -44.085388 10,975 260 322 2112
2020-07-07 12:39:46 GMT -19.745737 -44.068859 10,550 260 315 2880
2020-07-07 12:39:34 GMT -19.742706 -44.052036 9,950 260 314 3200
2020-07-07 12:39:25 GMT -19.740005 -44.036980 9,400 260 314 3520
2020-07-07 12:39:14 GMT -19.737171 -44.020866 8,800 260 314 3072
2020-07-07 12:39:02 GMT -19.734375 -44.004314 8,300 261 308 2624
2020-07-07 12:38:53 GMT -19.731911 -43.988708 7,950 262 297 1600
2020-07-07 12:38:42 GMT -19.729862 -43.973427 7,700 263 281 1408
2020-07-07 12:38:30 GMT -19.728378 -43.959290 7,300 263 267 3008
2020-07-07 12:38:20 GMT -19.725348 -43.945862 6,750 250 265 3008
2020-07-07 12:38:10 GMT -19.719481 -43.933475 6,250 234 258 2688
2020-07-07 12:37:58 GMT -19.710297 -43.924908 5,725 210 244 3264
2020-07-07 12:37:48 GMT -19.699310 -43.921181 5,075 185 235 3648
2020-07-07 12:37:38 GMT -19.687866 -43.922653 4,500 158 226 2752
2020-07-07 12:37:26 GMT -19.678236 -43.928932 4,050 138 218 2240
2020-07-07 12:37:14 GMT -19.669298 -43.937370 3,675 140 198 832
2020-07-07 12:37:05 GMT -19.662548 -43.943314 3,500 140 198 832
2020-07-07 12:36:54 GMT -19.655273 -43.949532 3,375 141 178 832
2020-07-07 12:36:43 GMT -19.648537 -43.955299 3,125 139 164 2112
2020-07-07 12:36:33 GMT -19.642365 -43.960812 2,700 139 165 2368
2020-07-07 12:36:21 GMT -19.635735 -43.966885 2,450 138 158 128
2020-07-07 12:36:11 GMT -19.630692 -43.971600 2,475 138 126 -64
2020-07-07 12:36:00 GMT -19.626516 -43.975426 2,475 139 84 0
2020-07-07 12:35:49 GMT -19.624249 -43.977512 0 140 37
2020-07-07 12:35:39 GMT -19.623161 -43.977879 0 188 19
2020-07-07 12:35:28 GMT -19.622440 -43.977474 0 241 16
2020-07-07 12:35:18 GMT -19.622583 -43.976772 0 317 17

Making use of Plane Finder data

You are free to use the raw flight data, aircraft information and images provided in this report for your own purposes provided the data is correctly attributed to Plane Finder. We ask that you please credit Plane Finder and link to planefinder.net in close proximity to the content.

Optionally one of the following logos (no smaller then 150x24px) can be used and must link to planefinder.net

Embedding the Plane Finder map

You are welcome to embed the Plane Finder playback map on your website to offer visitors a more interactive experience. We suggest using the following HTML code:

<iframe src="//planefinder.net/data/report/AD4050-PR-AUQ-7700-squawk-2020-07-07/map" width="800" height="600" seamless="seamless"></iframe>

Where our data comes from

Plane Finder has a global network of data feeds and antenna radars that receive data broadcast directly from aircraft. The primary technologies used are ADS-B and MLAT. We also show feeds from the FAA and a FLARM glider feed.

Click here to find out more about the Plane Finder network.

How we collect our data